Time;durP1;ratioP1;P1;durP2;ratioP2;P2;SDS_P1;SDS_P2;PMS_P1;PMS_P2;Temp;Humidity;BMP_temperature;BMP_pressure;BME280_temperature;BME280_humidity;BME280_pressure;Samples;Min_cycle;Max_cycle;Signal;HPM_P1;HPM_P2
2024/02/13 00:00:36;;;;;;;20.40;9.93;;;;;;;;;;5093698;28;20208;-88
2024/02/13 00:03:05;;;;;;;10.03;8.40;;;;;;;;;;5075406;28;20301;-87
2024/02/13 00:05:33;;;;;;;9.60;7.60;;;;;;;;;;5097576;28;20291;-88
2024/02/13 00:08:00;;;;;;;18.20;8.40;;;;;;;;;;5046881;28;20239;-88
2024/02/13 00:10:30;;;;;;;18.13;10.43;;;;;;;;;;5091817;28;20690;-88
2024/02/13 00:12:58;;;;;;;13.97;10.47;;;;;;;;;;5093329;28;20205;-87
2024/02/13 00:15:26;;;;;;;21.67;10.53;;;;;;;;;;5101152;28;20224;-88
2024/02/13 00:17:53;;;;;;;19.20;10.20;;;;;;;;;;5073464;28;20221;-87
2024/02/13 00:20:20;;;;;;;21.90;11.60;;;;;;;;;;5068695;28;20208;-89
2024/02/13 00:22:48;;;;;;;15.33;10.37;;;;;;;;;;5069235;28;20211;-88
2024/02/13 00:25:18;;;;;;;16.60;9.00;;;;;;;;;;5059014;28;20711;-87
2024/02/13 00:27:46;;;;;;;11.23;7.90;;;;;;;;;;5055711;28;20209;-88
2024/02/13 00:30:14;;;;;;;15.87;9.90;;;;;;;;;;5081342;28;20294;-87
2024/02/13 00:32:42;;;;;;;12.87;9.13;;;;;;;;;;5091651;28;20239;-88
2024/02/13 00:35:09;;;;;;;13.40;9.60;;;;;;;;;;5072975;28;20579;-88
2024/02/13 00:37:37;;;;;;;15.53;10.33;;;;;;;;;;5074779;28;20263;-88
2024/02/13 00:40:09;;;;;;;15.47;9.60;;;;;;;;;;5075267;28;20208;-88
2024/02/13 00:42:37;;;;;;;15.63;10.47;;;;;;;;;;5092773;28;20654;-88
2024/02/13 00:45:10;;;;;;;18.47;12.33;;;;;;;;;;5093145;28;20239;-87
2024/02/13 00:47:40;;;;;;;18.27;10.83;;;;;;;;;;5092938;28;20203;-87
2024/02/13 00:50:07;;;;;;;19.13;12.33;;;;;;;;;;5058836;28;20295;-87
2024/02/13 00:52:39;;;;;;;17.27;10.30;;;;;;;;;;5088142;28;20209;-88
2024/02/13 00:55:08;;;;;;;18.63;12.50;;;;;;;;;;5068026;28;20204;-88
2024/02/13 00:57:34;;;;;;;18.17;11.37;;;;;;;;;;5092701;28;20248;-87
2024/02/13 01:00:04;;;;;;;19.07;11.80;;;;;;;;;;5074993;28;20237;-88
2024/02/13 01:02:34;;;;;;;20.03;12.77;;;;;;;;;;5075574;28;20265;-88
2024/02/13 01:05:02;;;;;;;20.93;12.50;;;;;;;;;;5074336;28;20223;-89
2024/02/13 01:07:29;;;;;;;21.30;13.43;;;;;;;;;;5074867;28;20214;-89
2024/02/13 01:09:56;;;;;;;20.63;14.53;;;;;;;;;;5074709;28;20235;-88
2024/02/13 01:12:23;;;;;;;21.73;12.67;;;;;;;;;;5074034;28;20212;-88
2024/02/13 01:14:50;;;;;;;22.43;12.60;;;;;;;;;;5092287;28;20207;-88
2024/02/13 01:17:17;;;;;;;23.33;13.47;;;;;;;;;;5075119;28;20253;-87
2024/02/13 01:19:47;;;;;;;20.33;12.07;;;;;;;;;;5073704;28;20215;-88
2024/02/13 01:22:14;;;;;;;25.10;13.27;;;;;;;;;;5083412;28;20751;-88
2024/02/13 01:24:42;;;;;;;17.90;12.27;;;;;;;;;;5074110;28;20228;-88
2024/02/13 01:27:09;;;;;;;22.90;12.57;;;;;;;;;;5065045;28;20219;-88
2024/02/13 01:29:36;;;;;;;18.53;13.10;;;;;;;;;;5088642;28;20218;-88
2024/02/13 01:32:04;;;;;;;23.20;13.00;;;;;;;;;;5044602;28;20233;-88
2024/02/13 01:34:31;;;;;;;21.77;12.70;;;;;;;;;;5069135;28;20215;-88
2024/02/13 01:37:00;;;;;;;24.00;13.63;;;;;;;;;;5071231;28;20213;-89
2024/02/13 01:39:27;;;;;;;19.00;12.33;;;;;;;;;;5071965;28;20209;-88
2024/02/13 01:41:56;;;;;;;20.37;13.73;;;;;;;;;;5070985;28;20209;-89
2024/02/13 01:44:24;;;;;;;25.00;11.97;;;;;;;;;;5067886;28;20229;-87
2024/02/13 01:46:52;;;;;;;21.57;13.13;;;;;;;;;;5061384;28;20712;-87
2024/02/13 01:49:19;;;;;;;28.87;14.43;;;;;;;;;;5048959;28;20216;-88
2024/02/13 01:51:47;;;;;;;18.70;11.50;;;;;;;;;;5063065;28;20262;-88
2024/02/13 01:54:16;;;;;;;25.33;12.83;;;;;;;;;;5069676;28;20242;-88
2024/02/13 01:56:46;;;;;;;27.87;13.13;;;;;;;;;;5058404;28;20205;-88
2024/02/13 01:59:14;;;;;;;22.53;12.10;;;;;;;;;;5051839;28;20267;-88
2024/02/13 02:01:42;;;;;;;23.80;12.30;;;;;;;;;;5056506;28;20209;-87
2024/02/13 02:04:09;;;;;;;22.97;11.77;;;;;;;;;;5071564;28;20329;-88
2024/02/13 02:06:39;;;;;;;20.00;12.10;;;;;;;;;;5052078;28;20609;-87
2024/02/13 02:09:07;;;;;;;19.03;11.80;;;;;;;;;;5033866;28;20239;-87
2024/02/13 02:11:38;;;;;;;18.67;11.10;;;;;;;;;;5057381;28;20208;-88
2024/02/13 02:14:06;;;;;;;14.17;11.10;;;;;;;;;;5058518;28;20209;-88
2024/02/13 02:16:33;;;;;;;18.20;11.33;;;;;;;;;;5050649;28;20557;-88
2024/02/13 02:19:00;;;;;;;15.93;10.27;;;;;;;;;;5047574;28;20209;-88
2024/02/13 02:21:27;;;;;;;22.37;11.23;;;;;;;;;;5053858;28;20236;-88
2024/02/13 02:23:55;;;;;;;18.53;10.10;;;;;;;;;;5053228;28;20274;-88
2024/02/13 02:26:25;;;;;;;12.30;9.93;;;;;;;;;;5070097;28;20209;-88
2024/02/13 02:28:51;;;;;;;16.97;9.87;;;;;;;;;;5071277;28;20215;-89
2024/02/13 02:31:20;;;;;;;10.53;8.80;;;;;;;;;;5072115;28;20232;-89
2024/02/13 02:33:48;;;;;;;14.17;9.33;;;;;;;;;;5026125;28;20237;-89
2024/02/13 02:36:15;;;;;;;12.73;8.87;;;;;;;;;;5021836;28;20210;-89
2024/02/13 02:38:42;;;;;;;15.27;9.60;;;;;;;;;;5054803;28;20220;-89
2024/02/13 02:41:09;;;;;;;13.73;9.23;;;;;;;;;;5054412;28;20680;-89
2024/02/13 02:43:38;;;;;;;11.70;8.57;;;;;;;;;;5054276;28;20217;-89
2024/02/13 02:46:09;;;;;;;13.17;8.80;;;;;;;;;;5038127;28;20292;-89
2024/02/13 02:48:37;;;;;;;14.13;8.93;;;;;;;;;;5055387;28;20296;-89
2024/02/13 02:51:05;;;;;;;11.93;7.03;;;;;;;;;;5054178;28;20235;-88
2024/02/13 02:53:32;;;;;;;15.67;7.80;;;;;;;;;;5055588;28;20676;-88
2024/02/13 02:55:59;;;;;;;16.30;7.57;;;;;;;;;;5055300;28;20210;-89
2024/02/13 02:58:26;;;;;;;12.43;7.53;;;;;;;;;;5055294;28;20216;-89
2024/02/13 03:00:55;;;;;;;16.40;8.17;;;;;;;;;;5054009;28;20226;-89
2024/02/13 03:03:22;;;;;;;16.10;8.27;;;;;;;;;;5037891;28;20251;-89
2024/02/13 03:05:50;;;;;;;9.97;7.53;;;;;;;;;;5042157;28;20674;-89
2024/02/13 03:08:17;;;;;;;9.73;7.17;;;;;;;;;;5049131;28;20744;-89
2024/02/13 03:10:44;;;;;;;12.80;7.03;;;;;;;;;;5047420;28;20221;-89
2024/02/13 03:13:13;;;;;;;14.37;7.57;;;;;;;;;;5033561;28;20210;-88
2024/02/13 03:15:40;;;;;;;13.30;7.43;;;;;;;;;;5033978;28;20253;-89
2024/02/13 03:18:09;;;;;;;9.67;7.57;;;;;;;;;;5033888;28;20685;-86
2024/02/13 03:20:36;;;;;;;13.17;8.57;;;;;;;;;;5046033;28;20750;-85
2024/02/13 03:23:03;;;;;;;10.97;7.57;;;;;;;;;;5046061;28;20572;-83
2024/02/13 03:25:30;;;;;;;12.37;7.63;;;;;;;;;;5043827;28;20234;-83
2024/02/13 03:27:56;;;;;;;10.93;7.97;;;;;;;;;;5034050;28;20211;-83
2024/02/13 03:30:23;;;;;;;10.33;7.57;;;;;;;;;;5034325;28;20206;-81
2024/02/13 03:32:50;;;;;;;12.70;7.10;;;;;;;;;;5055946;28;20591;-82
2024/02/13 03:35:18;;;;;;;13.37;7.70;;;;;;;;;;5083749;28;20204;-82
2024/02/13 03:37:45;;;;;;;13.63;8.00;;;;;;;;;;5093687;28;20698;-83
2024/02/13 03:40:15;;;;;;;8.80;6.40;;;;;;;;;;5092677;28;20207;-83
2024/02/13 03:42:43;;;;;;;11.83;6.50;;;;;;;;;;5093583;28;20208;-82
2024/02/13 03:45:10;;;;;;;9.17;5.70;;;;;;;;;;5094033;28;20224;-83
2024/02/13 03:47:37;;;;;;;11.57;6.70;;;;;;;;;;5080261;28;20635;-83
2024/02/13 03:50:08;;;;;;;6.77;5.07;;;;;;;;;;5093525;28;20287;-83
2024/02/13 03:52:36;;;;;;;8.40;6.47;;;;;;;;;;5089034;28;20255;-84
2024/02/13 03:55:06;;;;;;;8.03;4.87;;;;;;;;;;5085304;28;20208;-83
2024/02/13 03:57:33;;;;;;;10.33;6.23;;;;;;;;;;5088421;28;20204;-83
2024/02/13 04:00:00;;;;;;;8.47;4.23;;;;;;;;;;5085623;28;20211;-83
2024/02/13 04:02:27;;;;;;;7.80;4.70;;;;;;;;;;5074356;28;20205;-83
2024/02/13 04:04:56;;;;;;;6.43;4.87;;;;;;;;;;5086046;28;20602;-83
2024/02/13 04:07:23;;;;;;;10.10;5.07;;;;;;;;;;5093490;28;20200;-82
2024/02/13 04:09:51;;;;;;;8.17;4.30;;;;;;;;;;5093703;28;20200;-83
2024/02/13 04:12:18;;;;;;;6.50;4.50;;;;;;;;;;5073100;28;20278;-85
2024/02/13 04:14:44;;;;;;;6.90;4.53;;;;;;;;;;5086518;28;20200;-83
2024/02/13 04:17:12;;;;;;;7.53;5.10;;;;;;;;;;5092988;28;20204;-83
2024/02/13 04:19:39;;;;;;;8.53;5.33;;;;;;;;;;5092647;28;20291;-83
2024/02/13 04:22:06;;;;;;;5.40;4.07;;;;;;;;;;5100140;28;20294;-90
2024/02/13 04:24:34;;;;;;;11.37;4.70;;;;;;;;;;5095892;28;20689;-90
2024/02/13 04:27:03;;;;;;;5.43;4.93;;;;;;;;;;5076348;28;20214;-90
2024/02/13 04:29:30;;;;;;;8.53;4.10;;;;;;;;;;5076524;28;20213;-89
2024/02/13 04:31:58;;;;;;;9.87;5.70;;;;;;;;;;5059859;28;20231;-90
2024/02/13 04:34:25;;;;;;;4.93;3.90;;;;;;;;;;5094587;28;20336;-90
2024/02/13 04:36:52;;;;;;;4.53;3.80;;;;;;;;;;5076286;28;20200;-89
2024/02/13 04:39:19;;;;;;;6.53;4.37;;;;;;;;;;5084110;28;20215;-90
2024/02/13 04:41:46;;;;;;;5.57;4.53;;;;;;;;;;5060849;28;20215;-90
2024/02/13 04:44:15;;;;;;;8.97;5.13;;;;;;;;;;5062814;28;20209;-90
2024/02/13 04:46:42;;;;;;;8.97;4.97;;;;;;;;;;5093657;28;20200;-90
2024/02/13 04:49:09;;;;;;;6.17;4.10;;;;;;;;;;5076002;28;20208;-90
2024/02/13 04:51:37;;;;;;;7.00;4.47;;;;;;;;;;5075964;28;20208;-90
2024/02/13 04:54:07;;;;;;;8.47;4.43;;;;;;;;;;5045201;28;20254;-90
2024/02/13 04:56:34;;;;;;;5.40;4.67;;;;;;;;;;5065226;28;20209;-90
2024/02/13 04:59:02;;;;;;;9.60;4.57;;;;;;;;;;5059623;28;20287;-90
2024/02/13 05:01:31;;;;;;;6.80;5.90;;;;;;;;;;5064838;28;20209;-91
2024/02/13 05:09:27;;;;;;;5.43;4.60;;;;;;;;;;5083695;28;20206;-90
2024/02/13 05:11:54;;;;;;;6.73;5.57;;;;;;;;;;5092651;28;20588;-89
2024/02/13 05:14:22;;;;;;;6.43;5.07;;;;;;;;;;5081510;28;20240;-90
2024/02/13 05:16:51;;;;;;;5.93;5.33;;;;;;;;;;5086297;28;20258;-91
2024/02/13 05:19:18;;;;;;;5.10;4.60;;;;;;;;;;5096494;28;20210;-90
2024/02/13 05:21:56;;;;;;;9.37;5.73;;;;;;;;;;5079599;28;20206;-90
2024/02/13 05:24:23;;;;;;;5.80;5.00;;;;;;;;;;5062801;28;20204;-90
2024/02/13 05:26:51;;;;;;;5.87;4.73;;;;;;;;;;5080860;28;20695;-89
2024/02/13 05:29:17;;;;;;;6.00;4.93;;;;;;;;;;5061213;28;20204;-86
2024/02/13 05:31:44;;;;;;;6.60;5.43;;;;;;;;;;5091332;28;20200;-85
2024/02/13 05:34:13;;;;;;;7.00;5.47;;;;;;;;;;5059995;28;20216;-85
2024/02/13 05:36:40;;;;;;;7.50;5.00;;;;;;;;;;5077586;28;20212;-85
2024/02/13 05:39:08;;;;;;;7.80;6.13;;;;;;;;;;5090522;28;20213;-86
2024/02/13 05:41:34;;;;;;;6.60;5.67;;;;;;;;;;5090993;28;20290;-85
2024/02/13 05:44:02;;;;;;;7.07;6.20;;;;;;;;;;5091093;28;20200;-88
2024/02/13 05:46:29;;;;;;;10.63;7.73;;;;;;;;;;5091246;28;20319;-85
2024/02/13 05:48:59;;;;;;;8.47;7.20;;;;;;;;;;5080514;28;20201;-86
2024/02/13 05:51:28;;;;;;;9.77;6.13;;;;;;;;;;5079039;28;20235;-85
2024/02/13 05:53:55;;;;;;;6.67;6.03;;;;;;;;;;5090951;28;20208;-86
2024/02/13 05:56:21;;;;;;;6.47;5.87;;;;;;;;;;5091161;28;20294;-85
2024/02/13 05:58:48;;;;;;;7.73;5.87;;;;;;;;;;5090784;28;20257;-85
2024/02/13 06:01:15;;;;;;;6.43;5.57;;;;;;;;;;5090852;28;20208;-87
2024/02/13 06:03:42;;;;;;;10.23;6.53;;;;;;;;;;5090578;28;20227;-85
2024/02/13 06:06:09;;;;;;;7.67;6.30;;;;;;;;;;5089993;28;20250;-85
2024/02/13 06:08:38;;;;;;;8.37;6.57;;;;;;;;;;5090577;28;20787;-86
2024/02/13 06:11:08;;;;;;;8.07;6.63;;;;;;;;;;5091430;28;20238;-86
2024/02/13 06:13:41;;;;;;;8.43;7.33;;;;;;;;;;5090690;28;20204;-85
2024/02/13 06:16:08;;;;;;;7.13;6.20;;;;;;;;;;5090929;28;20218;-85
2024/02/13 06:18:38;;;;;;;14.47;7.80;;;;;;;;;;5086349;28;20239;-85
2024/02/13 06:21:08;;;;;;;15.70;9.10;;;;;;;;;;5082773;28;20204;-86
2024/02/13 06:23:35;;;;;;;14.03;9.57;;;;;;;;;;5077654;28;20200;-86
2024/02/13 06:26:03;;;;;;;19.00;8.50;;;;;;;;;;5091183;28;20228;-85
2024/02/13 06:28:30;;;;;;;10.80;7.77;;;;;;;;;;5090820;28;20205;-85
2024/02/13 06:30:56;;;;;;;16.07;7.30;;;;;;;;;;5090545;28;20204;-85
2024/02/13 06:33:23;;;;;;;7.23;6.13;;;;;;;;;;5091505;28;20232;-85
2024/02/13 06:35:50;;;;;;;8.97;7.70;;;;;;;;;;5091119;28;20204;-85
2024/02/13 06:38:17;;;;;;;11.80;7.30;;;;;;;;;;5090746;28;20212;-85
2024/02/13 06:40:44;;;;;;;10.17;8.17;;;;;;;;;;5090589;28;20786;-86
2024/02/13 06:43:12;;;;;;;11.23;8.37;;;;;;;;;;5103531;28;20208;-86
2024/02/13 06:45:39;;;;;;;11.97;9.10;;;;;;;;;;5090694;28;20224;-86
2024/02/13 06:48:07;;;;;;;8.87;7.50;;;;;;;;;;5091059;28;20637;-86
2024/02/13 06:50:33;;;;;;;12.50;7.40;;;;;;;;;;5104296;28;20206;-85
2024/02/13 06:53:00;;;;;;;12.27;7.60;;;;;;;;;;5098508;28;20198;-85
2024/02/13 06:55:27;;;;;;;11.17;7.80;;;;;;;;;;5097200;28;20215;-85
2024/02/13 06:57:54;;;;;;;9.37;8.37;;;;;;;;;;5111179;28;20780;-85
2024/02/13 07:00:25;;;;;;;9.90;8.90;;;;;;;;;;5095942;28;20212;-85
2024/02/13 07:02:54;;;;;;;7.87;7.07;;;;;;;;;;5090857;28;20295;-84
2024/02/13 07:05:21;;;;;;;7.80;7.00;;;;;;;;;;5090294;28;20279;-85
2024/02/13 07:07:48;;;;;;;12.00;9.60;;;;;;;;;;5090684;28;20212;-85
2024/02/13 07:10:15;;;;;;;9.43;8.53;;;;;;;;;;5093868;28;20222;-85
2024/02/13 07:12:42;;;;;;;10.20;7.83;;;;;;;;;;5101290;28;20254;-85
2024/02/13 07:15:09;;;;;;;8.47;7.57;;;;;;;;;;5090836;28;20211;-85
2024/02/13 07:17:38;;;;;;;8.03;6.90;;;;;;;;;;5091925;28;20201;-86
2024/02/13 07:20:06;;;;;;;9.03;7.37;;;;;;;;;;5094051;28;20201;-85
2024/02/13 07:22:33;;;;;;;7.10;5.93;;;;;;;;;;5094702;28;20207;-85
2024/02/13 07:25:00;;;;;;;7.00;6.33;;;;;;;;;;5075718;28;20216;-85
2024/02/13 07:27:29;;;;;;;9.20;6.03;;;;;;;;;;5085621;28;20208;-85
2024/02/13 07:29:55;;;;;;;7.33;6.00;;;;;;;;;;5093963;28;20295;-85
2024/02/13 07:32:23;;;;;;;7.97;7.17;;;;;;;;;;5094521;28;20231;-85
2024/02/13 07:34:52;;;;;;;8.17;6.87;;;;;;;;;;5080305;28;20204;-85
2024/02/13 07:37:18;;;;;;;8.13;7.23;;;;;;;;;;5092895;28;20211;-86
2024/02/13 07:39:45;;;;;;;5.87;5.33;;;;;;;;;;5093392;28;20674;-85
2024/02/13 07:42:12;;;;;;;8.17;6.13;;;;;;;;;;5094010;28;20204;-86
2024/02/13 07:44:39;;;;;;;7.33;6.63;;;;;;;;;;5099690;28;20192;-86
2024/02/13 07:47:06;;;;;;;12.00;8.90;;;;;;;;;;5101260;28;20241;-86
2024/02/13 07:49:33;;;;;;;10.00;6.33;;;;;;;;;;5100942;28;20211;-85
2024/02/13 07:52:02;;;;;;;7.50;6.63;;;;;;;;;;5073498;28;20683;-85
2024/02/13 07:54:28;;;;;;;7.30;6.13;;;;;;;;;;5080229;28;20212;-86
2024/02/13 07:56:57;;;;;;;9.50;6.90;;;;;;;;;;5093920;28;20655;-86
2024/02/13 07:59:23;;;;;;;9.83;8.93;;;;;;;;;;5093397;28;20253;-85
2024/02/13 08:01:50;;;;;;;10.47;7.33;;;;;;;;;;5093105;28;20208;-86
2024/02/13 08:04:18;;;;;;;7.77;6.80;;;;;;;;;;5081039;28;20204;-86
2024/02/13 08:06:45;;;;;;;8.90;7.00;;;;;;;;;;5093555;28;20617;-86
2024/02/13 08:09:14;;;;;;;8.10;7.20;;;;;;;;;;5093170;28;20198;-86
2024/02/13 08:11:42;;;;;;;10.00;7.30;;;;;;;;;;5105295;28;20649;-86
2024/02/13 08:14:10;;;;;;;10.20;7.20;;;;;;;;;;5073349;28;20680;-84
2024/02/13 08:16:37;;;;;;;8.20;6.53;;;;;;;;;;5088835;28;20212;-86
2024/02/13 08:19:04;;;;;;;8.50;5.83;;;;;;;;;;5084625;28;20216;-85
2024/02/13 08:21:31;;;;;;;6.20;5.33;;;;;;;;;;5091163;28;20204;-85
2024/02/13 08:23:58;;;;;;;7.30;5.50;;;;;;;;;;5094932;28;20218;-85
2024/02/13 08:26:27;;;;;;;9.73;5.57;;;;;;;;;;5089652;28;20235;-85
2024/02/13 08:28:53;;;;;;;6.77;4.90;;;;;;;;;;5092115;28;20694;-85
2024/02/13 08:31:20;;;;;;;6.13;4.53;;;;;;;;;;5103398;28;20212;-85
2024/02/13 08:33:47;;;;;;;5.23;4.73;;;;;;;;;;5073232;28;20243;-86
2024/02/13 08:36:14;;;;;;;5.07;4.57;;;;;;;;;;5089838;28;20593;-86
2024/02/13 08:38:41;;;;;;;6.13;4.53;;;;;;;;;;5093173;28;20215;-86
2024/02/13 08:41:08;;;;;;;5.40;3.97;;;;;;;;;;5092767;28;20209;-85
2024/02/13 08:43:36;;;;;;;4.60;4.20;;;;;;;;;;5092593;28;20212;-85
2024/02/13 08:46:05;;;;;;;6.60;3.93;;;;;;;;;;5092721;28;20273;-85
2024/02/13 08:48:32;;;;;;;5.80;3.83;;;;;;;;;;5092317;28;20208;-85
2024/02/13 08:50:59;;;;;;;3.60;3.27;;;;;;;;;;5087661;28;20209;-85
2024/02/13 08:53:26;;;;;;;5.00;3.70;;;;;;;;;;5083831;28;20208;-86
2024/02/13 08:55:53;;;;;;;4.77;4.13;;;;;;;;;;5092313;28;20201;-85
2024/02/13 08:58:19;;;;;;;5.73;3.50;;;;;;;;;;5093048;28;20203;-84
2024/02/13 09:00:47;;;;;;;4.20;3.80;;;;;;;;;;5092309;28;20201;-85
2024/02/13 09:03:14;;;;;;;3.90;3.50;;;;;;;;;;5092299;28;20201;-85
2024/02/13 09:05:42;;;;;;;4.10;3.70;;;;;;;;;;5078867;28;20208;-86
2024/02/13 09:08:09;;;;;;;5.63;3.83;;;;;;;;;;5079916;28;20205;-85
2024/02/13 09:10:39;;;;;;;4.80;3.77;;;;;;;;;;5097312;28;20610;-86
2024/02/13 09:13:06;;;;;;;4.27;3.60;;;;;;;;;;5099064;28;20204;-85
2024/02/13 09:15:32;;;;;;;4.43;3.80;;;;;;;;;;5078638;28;20212;-84
2024/02/13 09:18:00;;;;;;;5.00;3.67;;;;;;;;;;5091691;28;20205;-85
2024/02/13 09:20:27;;;;;;;3.23;2.67;;;;;;;;;;5092228;28;20211;-86
2024/02/13 09:22:56;;;;;;;9.37;6.63;;;;;;;;;;5091804;28;20637;-86
2024/02/13 09:25:23;;;;;;;9.10;5.47;;;;;;;;;;5091455;28;20208;-86
2024/02/13 09:27:51;;;;;;;6.83;5.53;;;;;;;;;;5091821;28;20235;-86
2024/02/13 09:30:18;;;;;;;23.00;15.10;;;;;;;;;;5091371;28;20654;-86
2024/02/13 09:32:46;;;;;;;12.23;9.03;;;;;;;;;;5091977;28;20290;-86
2024/02/13 09:35:15;;;;;;;13.13;8.17;;;;;;;;;;5092218;28;20208;-86
2024/02/13 09:37:42;;;;;;;11.63;8.30;;;;;;;;;;5091567;28;20231;-90
2024/02/13 09:40:13;;;;;;;15.30;6.13;;;;;;;;;;5091349;28;20283;-85
2024/02/13 09:42:42;;;;;;;9.37;5.97;;;;;;;;;;5091719;28;20215;-86
2024/02/13 09:45:10;;;;;;;11.80;7.70;;;;;;;;;;5091960;28;20236;-85
2024/02/13 09:47:38;;;;;;;9.37;8.17;;;;;;;;;;5104552;28;20263;-85
2024/02/13 09:50:12;;;;;;;9.27;7.97;;;;;;;;;;5091857;28;20192;-85
2024/02/13 09:52:47;;;;;;;10.67;9.40;;;;;;;;;;5091589;28;20207;-85
2024/02/13 09:55:15;;;;;;;9.80;7.47;;;;;;;;;;5091627;28;20616;-86
2024/02/13 09:57:42;;;;;;;8.87;7.63;;;;;;;;;;5091681;28;20253;-85
2024/02/13 10:00:11;;;;;;;8.47;7.50;;;;;;;;;;5077790;28;20734;-86
2024/02/13 10:02:40;;;;;;;11.33;7.33;;;;;;;;;;5071784;28;20208;-85
2024/02/13 10:05:10;;;;;;;11.80;6.80;;;;;;;;;;5086574;28;20254;-85
2024/02/13 10:07:38;;;;;;;11.90;8.00;;;;;;;;;;5095021;28;20228;-85
2024/02/13 10:10:11;;;;;;;12.33;8.30;;;;;;;;;;5086792;28;20204;-85
2024/02/13 10:12:39;;;;;;;10.47;8.07;;;;;;;;;;5091415;28;20214;-85
2024/02/13 10:15:09;;;;;;;8.47;6.97;;;;;;;;;;5077225;28;20705;-84
2024/02/13 10:17:36;;;;;;;10.53;6.87;;;;;;;;;;5091218;28;20261;-85
2024/02/13 10:20:06;;;;;;;8.77;7.87;;;;;;;;;;5091182;28;20200;-85
2024/02/13 10:22:34;;;;;;;10.77;6.93;;;;;;;;;;5090931;28;20779;-86
2024/02/13 10:25:03;;;;;;;9.13;7.07;;;;;;;;;;5091240;28;20212;-86
2024/02/13 10:27:31;;;;;;;8.80;7.37;;;;;;;;;;5091046;28;20617;-86
2024/02/13 10:29:58;;;;;;;8.73;7.57;;;;;;;;;;5090844;28;20207;-86
2024/02/13 10:32:24;;;;;;;10.87;7.47;;;;;;;;;;5090777;28;20710;-86
2024/02/13 10:34:52;;;;;;;8.03;6.80;;;;;;;;;;5091036;28;20203;-86
2024/02/13 10:37:18;;;;;;;8.27;7.00;;;;;;;;;;5091215;28;20269;-86
2024/02/13 10:39:47;;;;;;;13.20;8.50;;;;;;;;;;5091249;28;20200;-86
2024/02/13 10:42:16;;;;;;;11.93;9.03;;;;;;;;;;5091251;28;20240;-87
2024/02/13 10:44:45;;;;;;;9.90;7.03;;;;;;;;;;5090998;28;20203;-85
2024/02/13 10:47:16;;;;;;;11.23;7.73;;;;;;;;;;5090895;28;20722;-91
2024/02/13 10:49:50;;;;;;;9.07;6.93;;;;;;;;;;5096305;28;20209;-85
2024/02/13 10:52:17;;;;;;;9.97;7.57;;;;;;;;;;5073476;28;20208;-86
2024/02/13 10:54:46;;;;;;;8.23;7.37;;;;;;;;;;5095224;28;20655;-86
2024/02/13 10:57:15;;;;;;;7.60;6.77;;;;;;;;;;5111031;28;20208;-86
2024/02/13 10:59:43;;;;;;;10.87;6.87;;;;;;;;;;5096619;28;20309;-86
2024/02/13 11:02:13;;;;;;;10.23;7.13;;;;;;;;;;5088186;28;20204;-86
2024/02/13 11:04:43;;;;;;;11.23;7.23;;;;;;;;;;5084375;28;20200;-86
2024/02/13 11:07:10;;;;;;;8.33;6.97;;;;;;;;;;5081712;28;20264;-85
2024/02/13 11:09:38;;;;;;;11.87;8.93;;;;;;;;;;5094306;28;20200;-86
2024/02/13 11:12:08;;;;;;;10.27;8.23;;;;;;;;;;5094172;28;20208;-86
2024/02/13 11:14:38;;;;;;;10.40;9.17;;;;;;;;;;5094836;28;20658;-86
2024/02/13 11:17:10;;;;;;;10.73;7.17;;;;;;;;;;5080319;28;20200;-85
2024/02/13 11:19:39;;;;;;;7.33;6.63;;;;;;;;;;5094075;28;20575;-86
2024/02/13 11:22:08;;;;;;;12.30;8.07;;;;;;;;;;5094166;28;20613;-85
2024/02/13 11:24:42;;;;;;;7.30;6.60;;;;;;;;;;5080963;28;20232;-86
2024/02/13 11:27:14;;;;;;;12.03;8.80;;;;;;;;;;5094542;28;20316;-85
2024/02/13 11:29:41;;;;;;;9.10;7.37;;;;;;;;;;5111269;28;20632;-86
2024/02/13 11:32:10;;;;;;;7.67;6.80;;;;;;;;;;5104129;28;20220;-87
2024/02/13 11:34:41;;;;;;;6.00;4.50;;;;;;;;;;5097888;28;20200;-85
2024/02/13 11:37:18;;;;;;;4.33;3.93;;;;;;;;;;5103040;28;20243;-85
2024/02/13 11:39:46;;;;;;;5.30;4.83;;;;;;;;;;5093738;28;20284;-86
2024/02/13 11:42:18;;;;;;;7.30;4.67;;;;;;;;;;5094089;28;20207;-86
2024/02/13 11:44:44;;;;;;;5.33;4.90;;;;;;;;;;5093541;28;20765;-85
2024/02/13 11:47:12;;;;;;;6.17;5.67;;;;;;;;;;5079960;28;20228;-90
2024/02/13 11:49:39;;;;;;;7.23;6.53;;;;;;;;;;5087739;28;20259;-84
2024/02/13 11:52:10;;;;;;;7.30;5.70;;;;;;;;;;5074204;28;20201;-85
2024/02/13 11:54:38;;;;;;;5.40;4.90;;;;;;;;;;5093508;28;20729;-85
2024/02/13 11:57:09;;;;;;;21.77;12.70;;;;;;;;;;5093550;28;20226;-85
2024/02/13 11:59:36;;;;;;;24.07;14.10;;;;;;;;;;5093711;28;20283;-86
2024/02/13 12:02:04;;;;;;;17.20;11.47;;;;;;;;;;5091030;28;20209;-85
2024/02/13 12:04:32;;;;;;;8.33;7.47;;;;;;;;;;5073897;28;20285;-84
2024/02/13 12:07:00;;;;;;;13.90;12.50;;;;;;;;;;5089444;28;20307;-85
2024/02/13 12:09:29;;;;;;;19.77;14.80;;;;;;;;;;5093387;28;20197;-84
2024/02/13 12:11:55;;;;;;;20.37;16.83;;;;;;;;;;5093755;28;20201;-86
2024/02/13 12:14:23;;;;;;;23.23;17.10;;;;;;;;;;5093325;28;20212;-85
2024/02/13 12:16:50;;;;;;;13.97;11.57;;;;;;;;;;5093151;28;20197;-85
2024/02/13 12:19:17;;;;;;;15.60;12.13;;;;;;;;;;5093559;28;20204;-85
2024/02/13 12:21:44;;;;;;;13.83;12.47;;;;;;;;;;5093143;28;20283;-85
2024/02/13 12:24:11;;;;;;;14.67;13.07;;;;;;;;;;5092869;28;20204;-85
2024/02/13 12:26:40;;;;;;;11.50;9.83;;;;;;;;;;5092805;28;20192;-85
2024/02/13 12:29:14;;;;;;;11.07;8.87;;;;;;;;;;5093065;28;20205;-85
2024/02/13 12:31:41;;;;;;;9.07;6.80;;;;;;;;;;5092733;28;20596;-85
2024/02/13 12:34:08;;;;;;;7.87;7.17;;;;;;;;;;5092690;28;20269;-85
2024/02/13 12:36:38;;;;;;;27.83;17.57;;;;;;;;;;5092837;28;20685;-86
2024/02/13 12:39:08;;;;;;;11.40;8.83;;;;;;;;;;5105306;28;20200;-86
2024/02/13 12:41:36;;;;;;;5.20;4.20;;;;;;;;;;5072718;28;20205;-85
2024/02/13 12:44:08;;;;;;;4.93;3.80;;;;;;;;;;5072263;28;20205;-85
2024/02/13 12:46:38;;;;;;;4.80;4.20;;;;;;;;;;5080946;28;20204;-85
2024/02/13 12:49:10;;;;;;;5.60;5.03;;;;;;;;;;5092114;28;20207;-85
2024/02/13 12:51:39;;;;;;;5.93;5.03;;;;;;;;;;5092352;28;20200;-85
2024/02/13 12:54:06;;;;;;;5.93;4.13;;;;;;;;;;5106165;28;20206;-85
2024/02/13 12:56:33;;;;;;;6.10;4.10;;;;;;;;;;5092916;28;20208;-85
2024/02/13 12:59:01;;;;;;;4.60;3.40;;;;;;;;;;5082838;28;20754;-85
2024/02/13 13:01:31;;;;;;;5.23;4.73;;;;;;;;;;5101911;28;20622;-85
2024/02/13 13:03:58;;;;;;;17.30;11.47;;;;;;;;;;5092742;28;20589;-85
2024/02/13 13:06:26;;;;;;;32.30;22.30;;;;;;;;;;5092248;28;20656;-86
2024/02/13 13:08:53;;;;;;;25.87;19.20;;;;;;;;;;5083878;28;20219;-85
2024/02/13 13:11:22;;;;;;;12.47;10.40;;;;;;;;;;5100721;28;20279;-85
2024/02/13 13:13:48;;;;;;;12.23;9.93;;;;;;;;;;5092346;28;20201;-85
2024/02/13 13:16:16;;;;;;;8.20;6.83;;;;;;;;;;5091461;28;20258;-85
2024/02/13 13:18:44;;;;;;;7.73;6.80;;;;;;;;;;5091761;28;20228;-85
2024/02/13 13:21:12;;;;;;;6.33;5.43;;;;;;;;;;5091861;28;20212;-84
2024/02/13 13:23:41;;;;;;;5.27;4.77;;;;;;;;;;5092152;28;20192;-85
2024/02/13 13:26:09;;;;;;;5.57;5.03;;;;;;;;;;5092828;28;20221;-85
2024/02/13 13:28:39;;;;;;;4.83;4.43;;;;;;;;;;5096775;28;20316;-85
2024/02/13 13:31:08;;;;;;;5.23;4.70;;;;;;;;;;5073303;28;20634;-85
2024/02/13 13:33:35;;;;;;;4.77;4.37;;;;;;;;;;5083187;28;20232;-85
2024/02/13 13:36:05;;;;;;;5.30;4.70;;;;;;;;;;5076126;28;20207;-86
2024/02/13 13:38:32;;;;;;;4.60;4.13;;;;;;;;;;5093443;28;20205;-85
2024/02/13 13:41:01;;;;;;;5.27;4.73;;;;;;;;;;5087700;28;20196;-85
2024/02/13 13:43:29;;;;;;;6.37;5.30;;;;;;;;;;5091591;28;20189;-85
2024/02/13 13:45:56;;;;;;;5.87;5.37;;;;;;;;;;5088642;28;20282;-85
2024/02/13 13:48:24;;;;;;;5.33;4.80;;;;;;;;;;5091395;28;20223;-88
2024/02/13 13:50:52;;;;;;;5.57;4.93;;;;;;;;;;5095201;28;20231;-85
2024/02/13 13:53:21;;;;;;;4.33;3.93;;;;;;;;;;5091741;28;20727;-87
2024/02/13 13:55:47;;;;;;;4.20;3.80;;;;;;;;;;5104652;28;20628;-86
2024/02/13 13:58:14;;;;;;;3.97;3.20;;;;;;;;;;5091521;28;20200;-86
2024/02/13 14:00:43;;;;;;;3.13;2.93;;;;;;;;;;5091454;28;20197;-85
2024/02/13 14:03:11;;;;;;;15.30;11.40;;;;;;;;;;5080005;28;20220;-85
2024/02/13 14:05:39;;;;;;;21.53;13.10;;;;;;;;;;5076066;28;20298;-86
2024/02/13 14:08:07;;;;;;;22.13;14.80;;;;;;;;;;5091606;28;20223;-86
2024/02/13 14:10:38;;;;;;;10.07;6.70;;;;;;;;;;5091190;28;20231;-86
2024/02/13 14:13:09;;;;;;;24.33;14.60;;;;;;;;;;5091489;28;20208;-86
2024/02/13 14:15:38;;;;;;;85.73;47.50;;;;;;;;;;5078180;28;20283;-86
2024/02/13 14:18:09;;;;;;;27.77;22.63;;;;;;;;;;5090899;28;20200;-87
2024/02/13 14:20:38;;;;;;;23.33;20.83;;;;;;;;;;5082372;28;20207;-86
2024/02/13 14:23:08;;;;;;;32.57;28.93;;;;;;;;;;5086426;28;20713;-84
2024/02/13 14:25:37;;;;;;;144.90;78.30;;;;;;;;;;5090622;28;20585;-85
2024/02/13 14:28:06;;;;;;;335.50;180.67;;;;;;;;;;5103118;28;20224;-85
2024/02/13 14:30:33;;;;;;;163.57;102.53;;;;;;;;;;5096045;28;20685;-86
2024/02/13 14:33:01;;;;;;;18.67;14.47;;;;;;;;;;5093824;28;20733;-86
2024/02/13 14:35:28;;;;;;;8.77;7.57;;;;;;;;;;5085931;28;20215;-86
2024/02/13 14:37:56;;;;;;;5.03;4.60;;;;;;;;;;5077656;28;20204;-85
2024/02/13 14:40:23;;;;;;;8.47;7.13;;;;;;;;;;5085710;28;20215;-86
2024/02/13 14:42:53;;;;;;;5.97;5.37;;;;;;;;;;5095566;28;20219;-86